createdAt,value
2022-12-03T00:01:48.194Z,101436.91
2022-12-03T00:04:14.935Z,101445.56
2022-12-03T00:06:41.774Z,101441.41
2022-12-03T00:09:08.514Z,101439.88
2022-12-03T00:11:35.362Z,101425.72
2022-12-03T00:14:02.113Z,101430.72
2022-12-03T00:16:29.058Z,101413.66
2022-12-03T00:18:55.890Z,101438.19
2022-12-03T00:21:24.609Z,101439.25
2022-12-03T00:23:51.785Z,101437.31
2022-12-03T00:26:18.613Z,101440.78
2022-12-03T00:28:45.358Z,101441.47
2022-12-03T00:31:13.486Z,101435.56
2022-12-03T00:33:40.249Z,101435.50
2022-12-03T00:36:07.483Z,101433.00
2022-12-03T00:38:34.320Z,101433.63
2022-12-03T00:41:01.152Z,101433.56
2022-12-03T00:43:27.920Z,101427.03
2022-12-03T00:45:54.776Z,101421.34
2022-12-03T00:48:21.572Z,101416.81
2022-12-03T00:50:48.419Z,101425.97
2022-12-03T00:53:15.148Z,101419.13
2022-12-03T00:55:41.935Z,101420.09
2022-12-03T00:58:09.532Z,101422.09
2022-12-03T01:00:36.858Z,101412.56
2022-12-03T01:03:04.497Z,101418.72
2022-12-03T01:05:31.393Z,101416.28
2022-12-03T01:07:58.145Z,101428.44
2022-12-03T01:10:24.975Z,101417.59
2022-12-03T01:12:51.730Z,101422.84
2022-12-03T01:15:18.580Z,101420.06
2022-12-03T01:17:45.328Z,101421.31
2022-12-03T01:20:12.688Z,101416.34
2022-12-03T01:22:39.529Z,101418.19
2022-12-03T01:25:06.787Z,101417.31
2022-12-03T01:27:33.505Z,101412.19
2022-12-03T01:30:00.292Z,101415.53
2022-12-03T01:32:27.095Z,101422.19
2022-12-03T01:34:56.050Z,101419.50
2022-12-03T01:37:25.272Z,101417.53
2022-12-03T01:39:52.184Z,101414.03
2022-12-03T01:42:23.633Z,101405.38
2022-12-03T01:44:56.122Z,101407.56
2022-12-03T01:47:33.172Z,101407.38
2022-12-03T01:50:04.817Z,101404.94
2022-12-03T01:52:37.052Z,101411.78
2022-12-03T01:55:08.044Z,101399.09
2022-12-03T01:57:46.025Z,101405.63
2022-12-03T02:00:15.346Z,101400.94
2022-12-03T02:02:42.570Z,101395.84
2022-12-03T02:05:18.123Z,101387.69
2022-12-03T02:07:45.185Z,101390.31
2022-12-03T02:10:14.137Z,101390.38
2022-12-03T02:12:47.734Z,101387.22
2022-12-03T02:15:15.050Z,101384.75
2022-12-03T02:17:43.035Z,101389.09
2022-12-03T02:20:11.646Z,101378.69
2022-12-03T02:22:47.967Z,101385.34
2022-12-03T02:25:18.303Z,101381.84
2022-12-03T02:27:45.777Z,101373.25
2022-12-03T02:30:17.334Z,101363.31
2022-12-03T02:32:44.370Z,101364.13
2022-12-03T02:35:20.540Z,101357.28
2022-12-03T02:37:50.893Z,101360.00
2022-12-03T02:40:24.848Z,101345.56
2022-12-03T02:42:55.529Z,101353.44
2022-12-03T02:45:36.096Z,101349.50
2022-12-03T02:48:08.667Z,101349.56
2022-12-03T02:50:42.486Z,101338.44
2022-12-03T02:53:17.393Z,101340.75
2022-12-03T02:55:44.936Z,101342.72
2022-12-03T02:58:12.213Z,101344.03
2022-12-03T03:00:39.860Z,101346.78
2022-12-03T03:03:08.612Z,101344.16
2022-12-03T03:05:38.581Z,101346.66
2022-12-03T03:08:08.132Z,101355.72
2022-12-03T03:10:37.321Z,101358.53
2022-12-03T03:13:08.957Z,101352.72
2022-12-03T03:15:37.325Z,101339.72
2022-12-03T03:18:05.623Z,101353.31
2022-12-03T03:20:32.469Z,101342.16
2022-12-03T03:23:12.899Z,101340.16
2022-12-03T03:25:42.470Z,101340.28
2022-12-03T03:28:09.922Z,101343.94
2022-12-03T03:30:52.185Z,101342.28
2022-12-03T03:33:19.182Z,101343.22
2022-12-03T03:35:48.116Z,101342.50
2022-12-03T03:38:18.886Z,101337.38
2022-12-03T03:40:48.165Z,101336.66
2022-12-03T03:43:15.028Z,101327.56
2022-12-03T03:45:42.775Z,101332.81
2022-12-03T03:48:10.489Z,101337.00
2022-12-03T03:50:37.611Z,101324.94
2022-12-03T03:53:05.812Z,101331.22
2022-12-03T03:55:33.754Z,101330.16
2022-12-03T03:58:01.028Z,101329.47
2022-12-03T04:00:27.995Z,101328.91
2022-12-03T04:02:54.798Z,101328.22
2022-12-03T04:05:23.846Z,101314.59
2022-12-03T04:07:51.086Z,101320.47
2022-12-03T04:10:36.343Z,101315.88
2022-12-03T04:13:03.904Z,101309.81
2022-12-03T04:15:30.920Z,101305.94
2022-12-03T04:18:17.669Z,101303.50
2022-12-03T04:20:44.552Z,101295.75
2022-12-03T04:23:11.350Z,101301.69
2022-12-03T04:25:56.867Z,101297.63
2022-12-03T04:28:42.391Z,101286.91
2022-12-03T04:31:27.739Z,101288.66
2022-12-03T04:34:13.260Z,101287.19
2022-12-03T04:36:40.078Z,101289.97
2022-12-03T04:39:06.826Z,101292.56
2022-12-03T04:41:33.651Z,101290.88
2022-12-03T04:44:18.984Z,101277.38
2022-12-03T04:46:45.779Z,101270.56
2022-12-03T04:49:12.775Z,101267.22
2022-12-03T04:51:39.637Z,101261.44
2022-12-03T04:54:06.446Z,101268.13
2022-12-03T04:56:33.321Z,101265.56
2022-12-03T04:59:00.078Z,101273.13
2022-12-03T05:01:27.047Z,101268.78
2022-12-03T05:03:53.756Z,101273.94
2022-12-03T05:06:20.803Z,101279.41
2022-12-03T05:08:47.643Z,101270.56
2022-12-03T05:11:14.698Z,101284.28
2022-12-03T05:13:43.093Z,101285.38
2022-12-03T05:16:10.334Z,101287.69
2022-12-03T05:18:37.112Z,101277.38
2022-12-03T05:21:04.090Z,101276.31
2022-12-03T05:23:32.158Z,101283.31
2022-12-03T05:25:58.954Z,101294.75
2022-12-03T05:28:25.757Z,101286.41
2022-12-03T05:30:52.876Z,101293.16
2022-12-03T05:33:20.509Z,101303.97
2022-12-03T05:35:47.703Z,101313.06
2022-12-03T05:38:14.388Z,101313.31
2022-12-03T05:40:41.276Z,101319.16
2022-12-03T05:43:08.360Z,101311.63
2022-12-03T05:45:37.408Z,101328.75
2022-12-03T05:48:06.555Z,101324.97
2022-12-03T05:50:35.514Z,101319.75
2022-12-03T05:53:15.275Z,101317.06
2022-12-03T05:55:42.221Z,101320.69
2022-12-03T05:58:09.589Z,101325.88
2022-12-03T06:00:42.449Z,101321.75
2022-12-03T06:03:10.746Z,101315.19
2022-12-03T06:05:37.855Z,101330.47
2022-12-03T06:08:05.078Z,101330.34
2022-12-03T06:10:32.623Z,101339.84
2022-12-03T06:12:59.561Z,101339.84
2022-12-03T06:15:26.309Z,101341.78
2022-12-03T06:17:53.684Z,101344.28
2022-12-03T06:20:20.811Z,101358.09
2022-12-03T06:22:48.224Z,101354.00
2022-12-03T06:25:15.678Z,101355.97
2022-12-03T06:27:42.643Z,101355.22
2022-12-03T06:30:12.812Z,101381.00
2022-12-03T06:32:39.568Z,101380.91
2022-12-03T06:35:06.783Z,101385.91
2022-12-03T06:37:33.652Z,101387.78
2022-12-03T06:40:00.384Z,101388.28
2022-12-03T06:42:27.377Z,101381.28
2022-12-03T06:44:54.314Z,101386.53
2022-12-03T06:47:21.402Z,101366.75
2022-12-03T06:49:48.134Z,101346.47
2022-12-03T06:52:15.036Z,101349.88
2022-12-03T06:54:41.961Z,101341.50
2022-12-03T06:57:08.738Z,101330.47
2022-12-03T06:59:37.607Z,101314.53
2022-12-03T07:02:05.387Z,101308.06
2022-12-03T07:04:32.153Z,101302.97
2022-12-03T07:06:58.962Z,101307.41
2022-12-03T07:09:25.770Z,101306.22
2022-12-03T07:11:52.676Z,101310.00
2022-12-03T07:14:20.959Z,101309.56
2022-12-03T07:16:47.862Z,101293.41
2022-12-03T07:19:14.733Z,101287.41
2022-12-03T07:21:41.831Z,101266.03
2022-12-03T07:24:09.149Z,101268.53
2022-12-03T07:26:36.242Z,101279.63
2022-12-03T07:29:03.503Z,101277.53
2022-12-03T07:31:30.660Z,101286.16
2022-12-03T07:33:57.453Z,101295.97
2022-12-03T07:36:24.232Z,101298.41
2022-12-03T07:38:51.015Z,101296.63
2022-12-03T07:41:17.840Z,101301.72
2022-12-03T07:43:45.307Z,101301.81
2022-12-03T07:46:12.260Z,101314.66
2022-12-03T07:48:39.098Z,101309.50
2022-12-03T07:51:06.056Z,101311.94
2022-12-03T07:53:33.009Z,101304.34
2022-12-03T07:55:59.881Z,101300.09
2022-12-03T07:58:26.606Z,101287.28
2022-12-03T08:00:53.726Z,101290.75
2022-12-03T08:03:20.501Z,101294.16
2022-12-03T08:05:47.404Z,101300.41
2022-12-03T08:08:14.377Z,101295.22
2022-12-03T08:10:41.226Z,101298.72
2022-12-03T08:13:13.852Z,101286.69
2022-12-03T08:15:40.765Z,101290.19
2022-12-03T08:18:19.219Z,101284.06
2022-12-03T08:20:48.450Z,101282.41
2022-12-03T08:23:23.402Z,101285.31
2022-12-03T08:25:51.931Z,101290.28
2022-12-03T08:28:21.328Z,101298.94
2022-12-03T08:31:05.864Z,101282.75
2022-12-03T08:33:35.597Z,101286.84
2022-12-03T08:36:29.271Z,101287.63
2022-12-03T08:38:59.609Z,101294.56
2022-12-03T08:41:45.299Z,101283.38
2022-12-03T08:44:29.121Z,101285.94
2022-12-03T08:47:09.564Z,101282.53
2022-12-03T08:49:37.522Z,101281.69
2022-12-03T08:52:15.075Z,101284.47
2022-12-03T08:54:43.246Z,101281.09
2022-12-03T08:57:36.150Z,101273.63
2022-12-03T09:00:21.654Z,101272.09
2022-12-03T09:02:51.627Z,101298.63
2022-12-03T09:05:30.912Z,101304.16
2022-12-03T09:07:59.423Z,101303.94
2022-12-03T09:10:26.285Z,101301.88
2022-12-03T09:12:53.240Z,101306.88
2022-12-03T09:15:20.167Z,101308.66
2022-12-03T09:17:49.905Z,101308.44
2022-12-03T09:20:16.905Z,101304.38
2022-12-03T09:22:43.727Z,101302.03
2022-12-03T09:25:10.602Z,101311.28
2022-12-03T09:27:37.355Z,101313.84
2022-12-03T09:30:05.455Z,101331.72
2022-12-03T09:32:32.368Z,101330.72
2022-12-03T09:34:59.251Z,101366.00
2022-12-03T09:37:26.042Z,101340.84
2022-12-03T09:39:52.875Z,101325.19
2022-12-03T09:42:19.621Z,101319.19
2022-12-03T09:44:46.556Z,101316.78
2022-12-03T09:47:13.510Z,101308.28
2022-12-03T09:49:40.756Z,101298.13
2022-12-03T09:52:07.955Z,101299.53
2022-12-03T09:54:35.416Z,101299.31
2022-12-03T09:57:04.278Z,101281.41
2022-12-03T09:59:33.536Z,101274.50
2022-12-03T10:02:01.584Z,101267.69
2022-12-03T10:04:29.821Z,101259.25
2022-12-03T10:06:58.337Z,101255.53
2022-12-03T10:09:28.276Z,101241.19
2022-12-03T10:11:57.442Z,101247.03
2022-12-03T10:14:24.533Z,101252.25
2022-12-03T10:16:51.604Z,101246.09
2022-12-03T10:19:39.696Z,101244.50
2022-12-03T10:22:06.585Z,101240.84
2022-12-03T10:24:35.487Z,101243.31
2022-12-03T10:27:05.282Z,101242.69
2022-12-03T10:29:34.957Z,101232.47
2022-12-03T10:32:10.451Z,101228.97
2022-12-03T10:34:42.055Z,101233.22
2022-12-03T10:37:17.991Z,101225.56
2022-12-03T10:40:21.372Z,101237.09
2022-12-03T10:42:48.140Z,101232.22
2022-12-03T10:45:20.592Z,101234.00
2022-12-03T10:48:21.428Z,101240.94
2022-12-03T10:50:59.489Z,101240.28
2022-12-03T10:53:29.905Z,101244.97
2022-12-03T10:55:59.773Z,101248.31
2022-12-03T10:58:34.134Z,101250.94
2022-12-03T11:01:06.399Z,101253.53
2022-12-03T11:03:37.053Z,101248.63
2022-12-03T11:06:04.071Z,101253.00
2022-12-03T11:08:35.797Z,101258.31
2022-12-03T11:11:04.820Z,101258.75
2022-12-03T11:13:35.838Z,101256.72
2022-12-03T11:16:05.672Z,101254.88
2022-12-03T11:18:38.643Z,101250.44
2022-12-03T11:21:14.518Z,101249.56
2022-12-03T11:23:44.300Z,101245.91
2022-12-03T11:26:37.283Z,101242.69
2022-12-03T11:29:13.131Z,101231.56
2022-12-03T11:31:47.592Z,101222.34
2022-12-03T11:34:20.623Z,101228.41
2022-12-03T11:37:12.446Z,101228.50
2022-12-03T11:39:47.999Z,101232.16
2022-12-03T11:42:26.754Z,101235.59
2022-12-03T11:45:02.747Z,101233.47
2022-12-03T11:47:32.966Z,101223.97
2022-12-03T11:50:00.826Z,101229.78
2022-12-03T11:52:38.579Z,101218.50
2022-12-03T11:55:17.828Z,101219.44
2022-12-03T11:57:45.330Z,101218.50
2022-12-03T12:00:21.868Z,101218.50
2022-12-03T12:02:50.301Z,101220.22
2022-12-03T12:05:22.301Z,101211.59
2022-12-03T12:07:50.252Z,101209.03
2022-12-03T12:10:46.816Z,101209.09
2022-12-03T12:13:31.825Z,101205.78
2022-12-03T12:16:00.402Z,101204.09
2022-12-03T12:18:42.238Z,101203.31
2022-12-03T12:21:43.115Z,101195.69
2022-12-03T12:24:41.274Z,101191.44
2022-12-03T12:27:10.712Z,101184.72
2022-12-03T12:29:39.352Z,101190.13
2022-12-03T12:32:09.286Z,101185.19
2022-12-03T12:34:44.726Z,101184.25
2022-12-03T12:37:21.685Z,101184.19
2022-12-03T12:39:54.478Z,101178.88
2022-12-03T12:42:29.414Z,101178.94
2022-12-03T12:45:14.460Z,101168.66
2022-12-03T12:48:15.446Z,101174.00
2022-12-03T12:50:46.187Z,101174.06
2022-12-03T12:53:25.083Z,101176.72
2022-12-03T12:56:06.712Z,101178.34
2022-12-03T12:58:34.445Z,101181.78
2022-12-03T13:01:17.952Z,101182.69
2022-12-03T13:03:44.981Z,101185.31
2022-12-03T13:06:16.204Z,101178.50
2022-12-03T13:08:45.588Z,101185.31
2022-12-03T13:11:38.841Z,101183.56
2022-12-03T13:14:23.583Z,101178.44
2022-12-03T13:16:52.460Z,101182.69
2022-12-03T13:19:28.576Z,101184.34
2022-12-03T13:21:58.043Z,101188.69
2022-12-03T13:24:41.335Z,101182.75
2022-12-03T13:27:17.517Z,101172.38
2022-12-03T13:29:45.119Z,101170.03
2022-12-03T13:32:19.707Z,101171.19
2022-12-03T13:34:47.545Z,101166.16
2022-12-03T13:37:18.805Z,101167.88
2022-12-03T13:39:50.454Z,101168.63
2022-12-03T13:42:46.098Z,101169.47
2022-12-03T13:45:15.684Z,101163.28
2022-12-03T13:48:00.743Z,101161.34
2022-12-03T13:50:38.727Z,101167.22
2022-12-03T13:53:11.352Z,101174.91
2022-12-03T13:55:42.891Z,101174.09
2022-12-03T13:58:09.784Z,101167.94
2022-12-03T14:00:36.622Z,101176.41
2022-12-03T14:03:03.713Z,101170.34
2022-12-03T14:05:30.680Z,101164.31
2022-12-03T14:08:02.365Z,101169.63
2022-12-03T14:10:29.757Z,101165.28
2022-12-03T14:12:57.161Z,101178.13
2022-12-03T14:15:25.048Z,101175.53
2022-12-03T14:17:52.010Z,101178.16
2022-12-03T14:20:19.310Z,101172.34
2022-12-03T14:22:46.200Z,101181.69
2022-12-03T14:25:13.117Z,101178.13
2022-12-03T14:27:39.963Z,101178.91
2022-12-03T14:30:07.534Z,101178.03
2022-12-03T14:32:34.246Z,101189.13
2022-12-03T14:35:05.131Z,101187.34
2022-12-03T14:37:35.347Z,101191.44
2022-12-03T14:40:03.840Z,101187.09
2022-12-03T14:42:30.914Z,101200.81
2022-12-03T14:44:57.824Z,101203.56
2022-12-03T14:47:24.698Z,101208.53
2022-12-03T14:49:52.772Z,101213.66
2022-12-03T14:52:20.561Z,101210.88
2022-12-03T14:54:47.271Z,101211.44
2022-12-03T14:57:15.563Z,101216.44
2022-12-03T14:59:43.692Z,101224.91
2022-12-03T15:02:11.869Z,101224.72
2022-12-03T15:04:39.941Z,101226.38
2022-12-03T15:07:07.108Z,101232.44
2022-12-03T15:09:34.011Z,101229.88
2022-12-03T15:12:02.753Z,101237.53
2022-12-03T15:14:29.567Z,101242.50
2022-12-03T15:16:56.497Z,101242.47
2022-12-03T15:19:23.271Z,101240.72
2022-12-03T15:21:50.125Z,101244.25
2022-12-03T15:24:17.151Z,101247.69
2022-12-03T15:26:48.740Z,101250.09
2022-12-03T15:29:19.665Z,101254.44
2022-12-03T15:31:46.530Z,101256.97
2022-12-03T15:34:17.364Z,101256.81
2022-12-03T15:36:48.336Z,101264.47
2022-12-03T15:39:15.063Z,101262.00
2022-12-03T15:41:41.926Z,101268.78
2022-12-03T15:44:09.221Z,101263.63
2022-12-03T15:46:36.528Z,101266.31
2022-12-03T15:49:03.409Z,101267.19
2022-12-03T15:51:30.334Z,101275.66
2022-12-03T15:53:57.230Z,101267.91
2022-12-03T15:56:24.162Z,101274.72
2022-12-03T15:58:51.151Z,101266.88
2022-12-03T16:01:18.470Z,101272.13
2022-12-03T16:03:45.427Z,101273.00
2022-12-03T16:06:12.779Z,101265.72
2022-12-03T16:08:39.521Z,101269.81
2022-12-03T16:11:06.485Z,101275.69
2022-12-03T16:13:33.479Z,101272.28
2022-12-03T16:16:00.531Z,101270.47
2022-12-03T16:18:27.485Z,101263.06
2022-12-03T16:20:54.545Z,101274.16
2022-12-03T16:23:21.468Z,101271.78
2022-12-03T16:25:48.562Z,101270.25
2022-12-03T16:28:15.663Z,101272.06
2022-12-03T16:30:42.854Z,101270.16
2022-12-03T16:33:09.823Z,101273.41
2022-12-03T16:35:38.291Z,101280.31
2022-12-03T16:38:05.354Z,101287.88
2022-12-03T16:40:32.270Z,101284.53
2022-12-03T16:42:59.330Z,101290.47
2022-12-03T16:45:29.256Z,101288.75
2022-12-03T16:47:56.178Z,101293.91
2022-12-03T16:50:29.555Z,101300.81
2022-12-03T16:52:57.650Z,101298.25
2022-12-03T16:55:24.784Z,101296.47
2022-12-03T16:57:51.668Z,101287.91
2022-12-03T17:00:21.736Z,101287.00
2022-12-03T17:02:48.987Z,101287.16
2022-12-03T17:05:15.915Z,101278.53
2022-12-03T17:07:42.766Z,101276.84
2022-12-03T17:10:10.347Z,101266.53
2022-12-03T17:13:07.203Z,101265.44
2022-12-03T17:15:25.425Z,101260.16
2022-12-03T17:17:53.311Z,101257.59
2022-12-03T17:20:20.212Z,101250.56
2022-12-03T17:22:47.369Z,101242.84
2022-12-03T17:25:15.562Z,101244.59
2022-12-03T17:27:45.402Z,101240.09
2022-12-03T17:30:13.514Z,101229.75
2022-12-03T17:32:40.569Z,101226.34
2022-12-03T17:35:08.323Z,101213.31
2022-12-03T17:37:35.371Z,101208.97
2022-12-03T17:40:02.748Z,101209.03
2022-12-03T17:42:29.553Z,101200.28
2022-12-03T17:44:56.461Z,101207.06
2022-12-03T17:47:24.484Z,101204.50
2022-12-03T17:49:51.647Z,101203.75
2022-12-03T17:52:19.000Z,101207.19
2022-12-03T17:55:10.019Z,101203.84
2022-12-03T17:57:33.887Z,101204.72
2022-12-03T18:00:01.521Z,101201.09
2022-12-03T18:02:39.434Z,101194.41
2022-12-03T18:05:06.579Z,101197.06
2022-12-03T18:07:34.122Z,101191.66
2022-12-03T18:10:01.239Z,101190.59
2022-12-03T18:12:28.024Z,101181.28
2022-12-03T18:14:54.872Z,101179.63
2022-12-03T18:17:21.659Z,101175.16
2022-12-03T18:19:48.515Z,101175.78
2022-12-03T18:22:15.524Z,101180.28
2022-12-03T18:24:45.022Z,101169.22
2022-12-03T18:27:13.305Z,101167.56
2022-12-03T18:29:40.146Z,101167.97
2022-12-03T18:32:27.168Z,101167.09
2022-12-03T18:34:55.599Z,101170.59
2022-12-03T18:37:26.183Z,101166.44
2022-12-03T18:39:53.734Z,101162.75
2022-12-03T18:42:23.564Z,101174.69
2022-12-03T18:44:53.783Z,101155.75
2022-12-03T18:47:23.593Z,101165.22
2022-12-03T18:49:53.958Z,101172.13
2022-12-03T18:52:25.420Z,101173.06
2022-12-03T18:54:56.501Z,101173.16
2022-12-03T18:57:23.303Z,101179.25
2022-12-03T18:59:50.072Z,101169.78
2022-12-03T19:05:08.560Z,101176.09
2022-12-03T19:07:35.569Z,101181.28
2022-12-03T19:10:03.174Z,101184.72
2022-12-03T19:12:31.194Z,101183.50
2022-12-03T19:14:58.252Z,101187.75
2022-12-03T19:17:27.192Z,101180.91
2022-12-03T19:19:54.980Z,101181.69
2022-12-03T19:22:24.596Z,101182.56
2022-12-03T19:24:51.584Z,101189.63
2022-12-03T19:27:19.039Z,101192.28
2022-12-03T19:29:48.817Z,101199.19
2022-12-03T19:32:15.891Z,101197.41
2022-12-03T19:34:42.808Z,101190.47
2022-12-03T19:37:09.801Z,101182.28
2022-12-03T19:39:36.873Z,101182.66
2022-12-03T19:42:03.849Z,101178.22
2022-12-03T19:44:30.849Z,101177.41
2022-12-03T19:46:57.664Z,101183.47
2022-12-03T19:49:25.837Z,101182.75
2022-12-03T19:51:53.012Z,101183.06
2022-12-03T19:54:20.003Z,101183.41
2022-12-03T19:56:46.779Z,101191.16
2022-12-03T19:59:14.574Z,101172.50
2022-12-03T20:01:43.147Z,101172.56
2022-12-03T20:04:12.060Z,101182.53
2022-12-03T20:06:39.625Z,101167.75
2022-12-03T20:09:16.601Z,101168.53
2022-12-03T20:11:44.654Z,101168.72
2022-12-03T20:14:16.423Z,101163.41
2022-12-03T20:16:44.655Z,101158.22
2022-12-03T20:19:13.761Z,101150.63
2022-12-03T20:21:41.622Z,101161.06
2022-12-03T20:24:10.291Z,101143.38
2022-12-03T20:26:37.133Z,101150.13
2022-12-03T20:29:04.103Z,101142.50
2022-12-03T20:31:32.064Z,101140.03
2022-12-03T20:34:01.492Z,101140.13
2022-12-03T20:36:29.925Z,101141.91
2022-12-03T20:38:58.210Z,101133.41
2022-12-03T20:41:25.459Z,101134.91
2022-12-03T20:43:53.616Z,101121.38
2022-12-03T20:46:29.376Z,101124.69
2022-12-03T20:48:56.971Z,101121.03
2022-12-03T20:51:26.000Z,101118.34
2022-12-03T20:53:52.864Z,101117.69
2022-12-03T20:56:26.916Z,101121.00
2022-12-03T20:58:54.463Z,101119.19
2022-12-03T21:01:24.403Z,101117.78
2022-12-03T21:03:53.191Z,101110.97
2022-12-03T21:06:21.341Z,101107.44
2022-12-03T21:08:48.860Z,101112.78
2022-12-03T21:11:21.741Z,101112.78
2022-12-03T21:13:48.754Z,101105.03
2022-12-03T21:16:39.500Z,101101.84
2022-12-03T21:19:08.348Z,101102.56
2022-12-03T21:21:35.632Z,101095.66
2022-12-03T21:24:02.594Z,101088.50
2022-12-03T21:26:29.531Z,101083.34
2022-12-03T21:28:56.474Z,101074.03
2022-12-03T21:31:25.893Z,101068.06
2022-12-03T21:33:54.312Z,101063.25
2022-12-03T21:36:21.411Z,101060.72
2022-12-03T21:38:48.674Z,101056.53
2022-12-03T21:41:15.690Z,101060.91
2022-12-03T21:43:43.510Z,101055.84
2022-12-03T21:47:08.407Z,101062.84
2022-12-03T21:49:01.788Z,101057.00
2022-12-03T21:51:28.620Z,101062.03
2022-12-03T21:53:55.646Z,101058.56
2022-12-03T21:56:22.503Z,101065.38
2022-12-03T21:58:49.586Z,101060.91
2022-12-03T22:01:24.340Z,101065.06
2022-12-03T22:03:51.724Z,101058.03
2022-12-03T22:06:19.300Z,101064.09
2022-12-03T22:08:46.911Z,101059.88
2022-12-03T22:11:16.996Z,101057.47
2022-12-03T22:13:44.553Z,101049.06
2022-12-03T22:16:14.014Z,101050.63
2022-12-03T22:18:41.840Z,101040.16
2022-12-03T22:21:11.905Z,101039.91
2022-12-03T22:23:39.082Z,101016.88
2022-12-03T22:26:09.135Z,101000.69
2022-12-03T22:28:36.026Z,100990.38
2022-12-03T22:31:07.424Z,100973.53
2022-12-03T22:33:35.107Z,100962.50
2022-12-03T22:36:05.141Z,100962.03
2022-12-03T22:38:32.589Z,100958.72
2022-12-03T22:40:59.852Z,100935.25
2022-12-03T22:43:26.764Z,100931.19
2022-12-03T22:45:55.470Z,100916.97
2022-12-03T22:48:23.653Z,100901.06
2022-12-03T22:50:51.792Z,100904.69
2022-12-03T22:53:19.685Z,100905.63
2022-12-03T22:55:58.721Z,100900.53
2022-12-03T22:58:26.853Z,100914.31
2022-12-03T23:00:59.776Z,100890.16
2022-12-03T23:03:29.767Z,100880.59
2022-12-03T23:05:56.967Z,100870.06
2022-12-03T23:08:23.962Z,100882.84
2022-12-03T23:10:52.826Z,100886.31
2022-12-03T23:13:20.923Z,100877.81
2022-12-03T23:15:50.140Z,100880.28
2022-12-03T23:18:18.194Z,100866.66
2022-12-03T23:20:47.148Z,100853.59
2022-12-03T23:23:15.083Z,100846.41
2022-12-03T23:25:42.328Z,100851.50
2022-12-03T23:28:10.213Z,100855.09
2022-12-03T23:30:39.434Z,100850.91
2022-12-03T23:33:06.766Z,100858.50
2022-12-03T23:35:34.093Z,100876.53
2022-12-03T23:38:00.881Z,100874.91
2022-12-03T23:40:27.769Z,100884.38
2022-12-03T23:42:55.126Z,100883.38
2022-12-03T23:45:21.955Z,100887.72
2022-12-03T23:47:50.459Z,100906.47
2022-12-03T23:50:20.528Z,100904.81
2022-12-03T23:52:47.231Z,100903.81
2022-12-03T23:55:14.044Z,100914.06
2022-12-03T23:57:41.119Z,100905.63
